Terminal Aerodrome Forecast
Issued by NWS

Home | Current Version | Previous Version | Text Only | Print | Product List | Glossary Off
Versions: 1 2 3 4 5 6 7 8 9 10 11 12 13 14 15 16 17 18 19

000
FTUS43 KGRB 061914 AAB
TAFAUW
TAF AMD
KAUW 061914Z 0619/0718 24009KT P6SM SCT009 BKN023
      TEMPO 0619/0620 6SM -SN OVC009
     FM062000 24011G18KT P6SM BKN023
     FM070000 25013G20KT P6SM BKN025
     FM071400 25013G23KT P6SM BKN015=

USA.gov is the U.S. government's official web portal to all federal, state and local government web resources and services.